Jackson, MI

4:41 PM EDT on September 02, 2015 (GMT -0400)
Cork 'n Cap | | Change Station
CLOSE
Current Station
Personal Weather Station
Location: Jackson, MI
Elevation: 978 ft
Nearby Weather Stations

Elev 978 ft 42.26 °N, 84.42 °W | Updated 56 seconds ago

Mostly Cloudy
Mostly Cloudy
88.4 °F
Feels Like 91 °F
N
5.3
Wind Variable Wind from West
Gusts 9.8 mph

Today
High -- | Low -- °F
--% Chance of Precip.
Yesterday
High -- | Low -- °F
Precip. -- in
7:03 AM 8:10 PM
Waning Gibbous, 77% visible
Pressure 29.99 in
Visibility 10.0 miles
Clouds Few 4600 ft
Scattered Clouds 5500 ft
Heat Index 91 °F
Dew Point 66 °F
Humidity 48%
Rainfall Not available.
Snow Depth Not available.
UV 5 out of 12
Pollen 10.10 out of 12
Air Quality Not available.
Flu Activity Not available.
METAR KJXN 021956Z 29010KT 10SM FEW046 SCT055 31/22 A3001 RMK AO2 SLP153 T03060217
Pressure 29.99 in
Visibility 10.0 miles
Clouds Few 4600 ft
Scattered Clouds 5500 ft
Heat Index 91 °F
Dew Point 66 °F
Humidity 48%
Rainfall Not available.
Snow Depth Not available.
UV 5 out of 12
Pollen 10.10 out of 12
Air Quality Not available.
Flu Activity Not available.
METAR KJXN 021956Z 29010KT 10SM FEW046 SCT055 31/22 A3001 RMK AO2 SLP153 T03060217

10-Day Weather Forecast

×

Almanac

Astronomy

Sep. 02, 2015 Rise Set
Actual Time
Civil Twilight
Nautical Twilight
Astronomical Twilight
Moon
Length of Visible Light
Length of Day
Tomorrow will be .
, % of the Moon is Illuminated

Today's Extremes

State Highs State Lows

Community

WunderPhotos

Upload Photos

1,851,806 photos uploaded!

WunderBlogs® & News

Nearby

Air Quality

  Air Quality AQ Index Pollutant
Not available.

Snow Depth

Station Depth Elevation

Earthquake Activity

City Distance Mag. Time & Date
Minimum magnitude displayed is 2.5.

Coastal Water Temperatures

Place Temperature

Stations

Nearby Weather Stations

Station Location Temp. Windchill Dew Point Humidity Wind Precip. Elev Updated Type